Time;durP1;ratioP1;P1;durP2;ratioP2;P2;SDS_P1;SDS_P2;PMS_P1;PMS_P2;Temp;Humidity;BMP_temperature;BMP_pressure;BME280_temperature;BME280_humidity;BME280_pressure;Samples;Min_cycle;Max_cycle;Signal;HPM_P1;HPM_P2
2021/07/10 17:19:10;;;;;;;9.27;6.10;;;;;;;;;;5579474;23;20023;-75
2021/07/10 17:21:36;;;;;;;11.07;6.85;;;;;;;;;;4859152;29;20196;-67
2021/07/10 17:24:07;;;;;;;9.68;6.03;;;;;;;;;;4860172;29;20038;-69
2021/07/10 17:26:33;;;;;;;11.27;7.22;;;;;;;;;;4861018;29;20086;-74
2021/07/10 17:28:59;;;;;;;10.95;6.13;;;;;;;;;;4860976;29;20039;-63
2021/07/10 17:31:27;;;;;;;9.88;6.15;;;;;;;;;;4860803;29;20104;-59
2021/07/10 17:33:53;;;;;;;13.43;6.72;;;;;;;;;;4860588;29;20081;-76
2021/07/10 17:36:19;;;;;;;8.90;6.93;;;;;;;;;;4860664;29;20093;-76
2021/07/10 17:38:45;;;;;;;9.43;7.22;;;;;;;;;;4860585;29;20470;-59
2021/07/10 17:41:11;;;;;;;9.05;7.18;;;;;;;;;;4860729;29;20482;-63
2021/07/10 17:43:38;;;;;;;8.73;7.32;;;;;;;;;;4860474;29;20108;-65
2021/07/10 17:46:04;;;;;;;9.80;7.32;;;;;;;;;;4860317;29;20040;-59
2021/07/10 17:48:30;;;;;;;11.07;8.20;;;;;;;;;;4860242;29;20029;-67
2021/07/10 17:50:56;;;;;;;13.05;9.57;;;;;;;;;;4860211;29;20088;-65
2021/07/10 17:53:22;;;;;;;15.50;8.70;;;;;;;;;;4860223;29;20124;-60
2021/07/10 17:55:51;;;;;;;18.48;10.38;;;;;;;;;;4860411;29;20234;-63
2021/07/10 17:58:17;;;;;;;17.83;9.68;;;;;;;;;;4860265;29;20022;-62
2021/07/10 18:00:44;;;;;;;19.38;9.52;;;;;;;;;;4859983;29;20041;-72
2021/07/10 18:03:10;;;;;;;11.73;8.90;;;;;;;;;;4860220;29;20040;-60
2021/07/10 18:05:36;;;;;;;12.93;7.93;;;;;;;;;;4860403;29;20061;-66
2021/07/10 18:08:02;;;;;;;13.40;8.38;;;;;;;;;;4860108;29;20494;-61
2021/07/10 18:10:28;;;;;;;12.80;7.80;;;;;;;;;;4859894;29;20040;-75
2021/07/10 18:12:54;;;;;;;11.00;7.07;;;;;;;;;;4860144;29;20034;-76
2021/07/10 18:15:20;;;;;;;12.13;8.02;;;;;;;;;;4859876;29;20037;-71
2021/07/10 18:17:46;;;;;;;11.15;7.63;;;;;;;;;;4860147;29;20121;-61
2021/07/10 18:20:14;;;;;;;9.73;7.65;;;;;;;;;;4859508;29;20085;-70
2021/07/10 18:22:40;;;;;;;12.40;7.80;;;;;;;;;;4860269;29;20044;-61
2021/07/10 18:25:07;;;;;;;14.50;7.80;;;;;;;;;;4859847;29;20096;-64
2021/07/10 18:27:33;;;;;;;11.13;7.93;;;;;;;;;;4859977;29;20030;-68
2021/07/10 18:29:59;;;;;;;12.93;7.55;;;;;;;;;;4859427;29;20067;-62
2021/07/10 18:32:25;;;;;;;13.43;8.20;;;;;;;;;;4859246;29;20033;-62
2021/07/10 18:34:51;;;;;;;9.93;7.50;;;;;;;;;;4858661;29;20029;-61
2021/07/10 18:37:18;;;;;;;11.32;7.75;;;;;;;;;;4859580;29;20038;-62
2021/07/10 18:39:44;;;;;;;9.02;7.05;;;;;;;;;;4842450;29;20046;-63
2021/07/10 18:42:10;;;;;;;11.95;7.20;;;;;;;;;;4859671;29;20026;-62
2021/07/10 18:44:36;;;;;;;10.70;7.35;;;;;;;;;;4859046;29;20098;-64
2021/07/10 18:47:02;;;;;;;17.63;8.32;;;;;;;;;;4859268;29;20077;-70
2021/07/10 18:49:28;;;;;;;12.75;7.95;;;;;;;;;;4859090;29;20459;-67
2021/07/10 18:51:54;;;;;;;9.90;7.45;;;;;;;;;;4859280;29;20406;-76
2021/07/10 18:54:20;;;;;;;13.40;8.35;;;;;;;;;;4859615;29;20037;-61
2021/07/10 18:56:46;;;;;;;13.73;7.95;;;;;;;;;;4859484;29;20041;-65
2021/07/10 18:59:12;;;;;;;10.10;7.30;;;;;;;;;;4859837;29;20037;-59
2021/07/10 19:01:38;;;;;;;9.15;7.22;;;;;;;;;;4860274;29;20036;-73
2021/07/10 19:04:04;;;;;;;12.35;7.53;;;;;;;;;;4859996;29;20037;-77
2021/07/10 19:06:31;;;;;;;11.77;7.75;;;;;;;;;;4859929;29;20032;-72
2021/07/10 19:08:57;;;;;;;13.75;8.10;;;;;;;;;;4859436;29;20034;-75
2021/07/10 19:11:26;;;;;;;10.40;7.65;;;;;;;;;;4859671;29;20101;-71
2021/07/10 19:13:55;;;;;;;14.77;7.43;;;;;;;;;;4859241;29;20039;-74
2021/07/10 19:16:28;;;;;;;11.73;7.75;;;;;;;;;;4859295;29;20116;-75
2021/07/10 19:18:57;;;;;;;9.85;7.50;;;;;;;;;;4859361;29;20025;-74
2021/07/10 19:21:26;;;;;;;11.88;7.75;;;;;;;;;;4859215;29;20068;-75
2021/07/10 19:23:52;;;;;;;12.40;8.32;;;;;;;;;;4859271;29;20025;-75
2021/07/10 19:26:19;;;;;;;13.65;8.35;;;;;;;;;;4859024;29;20124;-74
2021/07/10 19:28:45;;;;;;;10.27;7.55;;;;;;;;;;4859053;29;20112;-69
2021/07/10 19:31:11;;;;;;;12.57;8.20;;;;;;;;;;4859038;29;20041;-67
2021/07/10 19:33:37;;;;;;;13.52;8.70;;;;;;;;;;4858761;29;20116;-73
2021/07/10 19:36:04;;;;;;;16.38;9.43;;;;;;;;;;4858638;29;20041;-70
2021/07/10 19:38:30;;;;;;;12.02;9.48;;;;;;;;;;4858830;29;20025;-62
2021/07/10 19:40:57;;;;;;;13.40;9.15;;;;;;;;;;4841373;29;20041;-63
2021/07/10 19:43:23;;;;;;;14.10;9.35;;;;;;;;;;4858866;29;20025;-60
2021/07/10 19:45:49;;;;;;;12.65;8.55;;;;;;;;;;4852644;29;20056;-60
2021/07/10 19:48:16;;;;;;;14.98;9.00;;;;;;;;;;4849528;29;20038;-63
2021/07/10 19:50:42;;;;;;;11.60;7.90;;;;;;;;;;4855371;29;20045;-62
2021/07/10 19:53:08;;;;;;;13.30;8.48;;;;;;;;;;4858920;29;20038;-62
2021/07/10 19:55:35;;;;;;;12.50;8.70;;;;;;;;;;4858753;29;20053;-62
2021/07/10 19:58:02;;;;;;;15.15;8.90;;;;;;;;;;4858685;29;20025;-61
2021/07/10 20:00:29;;;;;;;13.05;8.35;;;;;;;;;;4858857;29;20040;-60
2021/07/10 20:03:04;;;;;;;13.95;8.30;;;;;;;;;;4858336;29;20478;-60
2021/07/10 20:05:30;;;;;;;12.73;8.52;;;;;;;;;;4858586;29;20026;-61
2021/07/10 20:07:56;;;;;;;11.40;8.13;;;;;;;;;;4858309;29;20026;-62
2021/07/10 20:10:22;;;;;;;12.52;7.80;;;;;;;;;;4858211;29;20037;-61
2021/07/10 20:12:49;;;;;;;15.57;8.48;;;;;;;;;;4856723;29;20059;-64
2021/07/10 20:15:16;;;;;;;12.35;8.20;;;;;;;;;;4848734;29;20387;-61
2021/07/10 20:17:43;;;;;;;9.98;7.88;;;;;;;;;;4847121;29;20098;-61
2021/07/10 20:20:09;;;;;;;10.02;7.72;;;;;;;;;;4847744;29;20050;-60
2021/07/10 20:22:35;;;;;;;11.27;8.02;;;;;;;;;;4848753;29;20066;-65
2021/07/10 20:25:02;;;;;;;11.40;7.60;;;;;;;;;;4847042;29;20102;-63
2021/07/10 20:27:28;;;;;;;11.07;7.97;;;;;;;;;;4848590;29;20093;-61
2021/07/10 20:29:54;;;;;;;10.63;7.63;;;;;;;;;;4847473;29;20394;-70
2021/07/10 20:32:20;;;;;;;12.70;8.40;;;;;;;;;;4847066;29;20048;-65
2021/07/10 20:34:46;;;;;;;12.90;8.30;;;;;;;;;;4848941;29;20104;-61
2021/07/10 20:37:12;;;;;;;10.60;8.05;;;;;;;;;;4847412;29;20582;-66
2021/07/10 20:39:38;;;;;;;9.75;7.03;;;;;;;;;;4843331;29;20418;-61
2021/07/10 20:42:04;;;;;;;13.07;8.05;;;;;;;;;;4849171;29;20066;-62
2021/07/10 20:44:30;;;;;;;10.57;7.38;;;;;;;;;;4846807;29;20025;-62
2021/07/10 20:46:56;;;;;;;10.55;8.35;;;;;;;;;;4848119;29;20038;-61
2021/07/10 20:49:22;;;;;;;14.20;8.32;;;;;;;;;;4847807;29;20056;-64
2021/07/10 20:51:49;;;;;;;11.50;8.50;;;;;;;;;;4849822;29;20351;-65
2021/07/10 20:54:15;;;;;;;13.80;8.55;;;;;;;;;;4858338;29;20118;-62
2021/07/10 20:56:42;;;;;;;17.55;8.80;;;;;;;;;;4858155;29;20439;-62
2021/07/10 20:59:08;;;;;;;12.32;9.15;;;;;;;;;;4860316;29;20122;-62
2021/07/10 21:01:34;;;;;;;10.32;7.72;;;;;;;;;;4861067;29;20034;-62
2021/07/10 21:04:00;;;;;;;20.50;9.77;;;;;;;;;;4861546;29;20564;-63
2021/07/10 21:06:26;;;;;;;11.68;9.05;;;;;;;;;;4861414;29;20541;-62
2021/07/10 21:08:52;;;;;;;13.60;8.43;;;;;;;;;;4860955;29;20366;-69
2021/07/10 21:11:18;;;;;;;11.68;8.70;;;;;;;;;;4861129;29;20104;-62
2021/07/10 21:13:44;;;;;;;12.65;8.15;;;;;;;;;;4861038;29;20427;-61
2021/07/10 21:16:10;;;;;;;13.10;8.23;;;;;;;;;;4860900;29;20069;-70
2021/07/10 21:18:36;;;;;;;11.93;8.18;;;;;;;;;;4861095;29;20041;-62
2021/07/10 21:21:03;;;;;;;10.85;8.10;;;;;;;;;;4860146;29;20547;-72
2021/07/10 21:23:29;;;;;;;9.95;8.27;;;;;;;;;;4859997;29;20390;-69
2021/07/10 21:25:55;;;;;;;11.57;8.88;;;;;;;;;;4859683;29;20470;-73
2021/07/10 21:28:24;;;;;;;10.75;8.63;;;;;;;;;;4859313;29;20546;-68
2021/07/10 21:30:51;;;;;;;13.23;7.65;;;;;;;;;;4860203;29;20044;-62
2021/07/10 21:33:18;;;;;;;13.65;8.23;;;;;;;;;;4860667;29;20025;-71
2021/07/10 21:35:44;;;;;;;10.70;8.38;;;;;;;;;;4857751;29;20041;-63
2021/07/10 21:38:10;;;;;;;10.68;8.15;;;;;;;;;;4860308;29;20101;-65
2021/07/10 21:40:37;;;;;;;13.25;7.72;;;;;;;;;;4844363;29;20044;-62
2021/07/10 21:43:03;;;;;;;11.32;8.35;;;;;;;;;;4855222;29;20037;-73
2021/07/10 21:45:29;;;;;;;16.30;8.30;;;;;;;;;;4854012;29;20033;-65
2021/07/10 21:47:56;;;;;;;11.43;7.72;;;;;;;;;;4850000;29;20063;-62
2021/07/10 21:50:23;;;;;;;13.00;8.15;;;;;;;;;;4849396;29;20371;-62
2021/07/10 21:52:50;;;;;;;13.07;7.30;;;;;;;;;;4851101;29;20042;-61
2021/07/10 21:55:18;;;;;;;13.07;8.25;;;;;;;;;;4849955;29;20037;-60
2021/07/10 21:57:44;;;;;;;14.55;8.13;;;;;;;;;;4832499;29;20053;-62
2021/07/10 22:00:31;;;;;;;13.48;7.63;;;;;;;;;;4849285;29;20034;-60
